sensor_id;sensor_type;location;lat;lon;timestamp;P1;durP1;ratioP1;P2;durP2;ratioP2
72125;SDS011;59999;51.676;22.650;2022-09-16T00:02:01;14.20;;;7.55;;
72125;SDS011;59999;51.676;22.650;2022-09-16T00:04:27;15.15;;;8.10;;
72125;SDS011;59999;51.676;22.650;2022-09-16T00:06:53;14.17;;;7.63;;
72125;SDS011;59999;51.676;22.650;2022-09-16T00:09:19;16.25;;;7.90;;
72125;SDS011;59999;51.676;22.650;2022-09-16T00:11:45;13.52;;;7.40;;
72125;SDS011;59999;51.676;22.650;2022-09-16T00:14:11;16.53;;;7.33;;
72125;SDS011;59999;51.676;22.650;2022-09-16T00:16:37;14.30;;;7.72;;
72125;SDS011;59999;51.676;22.650;2022-09-16T00:19:03;14.77;;;7.78;;
72125;SDS011;59999;51.676;22.650;2022-09-16T00:21:29;17.20;;;8.63;;
72125;SDS011;59999;51.676;22.650;2022-09-16T00:23:55;16.87;;;8.50;;
72125;SDS011;59999;51.676;22.650;2022-09-16T00:26:21;15.07;;;7.95;;
72125;SDS011;59999;51.676;22.650;2022-09-16T00:28:48;15.60;;;8.30;;
72125;SDS011;59999;51.676;22.650;2022-09-16T00:31:15;14.57;;;8.18;;
72125;SDS011;59999;51.676;22.650;2022-09-16T00:33:42;16.42;;;8.95;;
72125;SDS011;59999;51.676;22.650;2022-09-16T00:36:09;18.30;;;9.33;;
72125;SDS011;59999;51.676;22.650;2022-09-16T00:38:37;15.63;;;8.25;;
72125;SDS011;59999;51.676;22.650;2022-09-16T00:41:04;18.45;;;8.95;;
72125;SDS011;59999;51.676;22.650;2022-09-16T00:43:50;16.77;;;8.38;;
72125;SDS011;59999;51.676;22.650;2022-09-16T00:46:31;16.95;;;8.98;;
72125;SDS011;59999;51.676;22.650;2022-09-16T00:49:04;15.93;;;8.43;;
72125;SDS011;59999;51.676;22.650;2022-09-16T00:51:36;15.23;;;8.63;;
72125;SDS011;59999;51.676;22.650;2022-09-16T00:54:04;17.58;;;8.43;;
72125;SDS011;59999;51.676;22.650;2022-09-16T00:56:35;18.58;;;8.65;;
72125;SDS011;59999;51.676;22.650;2022-09-16T00:59:10;17.20;;;8.40;;
72125;SDS011;59999;51.676;22.650;2022-09-16T01:01:45;18.90;;;8.20;;
72125;SDS011;59999;51.676;22.650;2022-09-16T01:04:13;17.00;;;9.07;;
72125;SDS011;59999;51.676;22.650;2022-09-16T01:06:48;16.30;;;9.00;;
72125;SDS011;59999;51.676;22.650;2022-09-16T01:09:15;17.10;;;8.88;;
72125;SDS011;59999;51.676;22.650;2022-09-16T01:11:43;15.00;;;8.32;;
72125;SDS011;59999;51.676;22.650;2022-09-16T01:14:09;15.60;;;8.30;;
72125;SDS011;59999;51.676;22.650;2022-09-16T01:16:58;18.60;;;8.93;;
72125;SDS011;59999;51.676;22.650;2022-09-16T01:23:00;16.23;;;8.00;;
72125;SDS011;59999;51.676;22.650;2022-09-16T01:36:30;17.37;;;8.90;;
72125;SDS011;59999;51.676;22.650;2022-09-16T01:39:09;14.35;;;7.70;;
72125;SDS011;59999;51.676;22.650;2022-09-16T01:45:03;13.52;;;7.45;;
72125;SDS011;59999;51.676;22.650;2022-09-16T01:47:36;17.02;;;7.95;;
72125;SDS011;59999;51.676;22.650;2022-09-16T01:50:07;16.87;;;8.37;;
72125;SDS011;59999;51.676;22.650;2022-09-16T01:55:21;16.50;;;8.15;;
72125;SDS011;59999;51.676;22.650;2022-09-16T01:58:27;15.98;;;8.23;;
72125;SDS011;59999;51.676;22.650;2022-09-16T02:01:02;19.20;;;8.85;;
72125;SDS011;59999;51.676;22.650;2022-09-16T02:03:33;16.80;;;8.60;;
72125;SDS011;59999;51.676;22.650;2022-09-16T02:06:24;16.20;;;8.65;;
72125;SDS011;59999;51.676;22.650;2022-09-16T02:08:52;17.60;;;9.60;;
72125;SDS011;59999;51.676;22.650;2022-09-16T02:11:24;17.20;;;8.10;;
72125;SDS011;59999;51.676;22.650;2022-09-16T02:13:53;19.83;;;8.80;;
72125;SDS011;59999;51.676;22.650;2022-09-16T02:16:42;19.50;;;8.40;;
72125;SDS011;59999;51.676;22.650;2022-09-16T02:19:14;17.30;;;8.95;;
72125;SDS011;59999;51.676;22.650;2022-09-16T02:21:46;17.42;;;9.32;;
72125;SDS011;59999;51.676;22.650;2022-09-16T02:24:17;18.88;;;9.05;;
72125;SDS011;59999;51.676;22.650;2022-09-16T02:26:54;17.23;;;9.55;;
72125;SDS011;59999;51.676;22.650;2022-09-16T02:29:26;19.93;;;8.83;;
72125;SDS011;59999;51.676;22.650;2022-09-16T02:31:56;16.95;;;8.50;;
72125;SDS011;59999;51.676;22.650;2022-09-16T02:34:25;19.40;;;8.82;;
72125;SDS011;59999;51.676;22.650;2022-09-16T02:36:55;15.75;;;8.38;;
72125;SDS011;59999;51.676;22.650;2022-09-16T02:39:29;18.65;;;8.98;;
72125;SDS011;59999;51.676;22.650;2022-09-16T02:41:58;16.73;;;8.27;;
72125;SDS011;59999;51.676;22.650;2022-09-16T02:44:25;18.52;;;8.93;;
72125;SDS011;59999;51.676;22.650;2022-09-16T02:46:56;18.63;;;8.55;;
72125;SDS011;59999;51.676;22.650;2022-09-16T02:49:38;17.13;;;8.15;;
72125;SDS011;59999;51.676;22.650;2022-09-16T02:54:49;17.73;;;8.17;;
72125;SDS011;59999;51.676;22.650;2022-09-16T02:57:22;17.23;;;7.97;;
72125;SDS011;59999;51.676;22.650;2022-09-16T02:59:48;21.13;;;8.75;;
72125;SDS011;59999;51.676;22.650;2022-09-16T03:02:14;16.27;;;8.48;;
72125;SDS011;59999;51.676;22.650;2022-09-16T03:04:41;17.88;;;8.55;;
72125;SDS011;59999;51.676;22.650;2022-09-16T03:07:07;17.40;;;7.90;;
72125;SDS011;59999;51.676;22.650;2022-09-16T03:09:36;17.20;;;8.27;;
72125;SDS011;59999;51.676;22.650;2022-09-16T03:25:50;17.80;;;7.97;;
72125;SDS011;59999;51.676;22.650;2022-09-16T03:28:26;15.45;;;7.95;;
72125;SDS011;59999;51.676;22.650;2022-09-16T03:31:05;21.30;;;8.25;;
72125;SDS011;59999;51.676;22.650;2022-09-16T03:33:38;15.83;;;7.93;;
72125;SDS011;59999;51.676;22.650;2022-09-16T03:36:13;14.20;;;7.65;;
72125;SDS011;59999;51.676;22.650;2022-09-16T03:38:43;18.17;;;7.60;;
72125;SDS011;59999;51.676;22.650;2022-09-16T03:41:09;14.73;;;7.40;;
72125;SDS011;59999;51.676;22.650;2022-09-16T03:43:37;17.33;;;6.78;;
72125;SDS011;59999;51.676;22.650;2022-09-16T03:46:13;14.37;;;6.87;;
72125;SDS011;59999;51.676;22.650;2022-09-16T03:48:39;13.35;;;6.25;;
72125;SDS011;59999;51.676;22.650;2022-09-16T03:51:05;14.60;;;7.05;;
72125;SDS011;59999;51.676;22.650;2022-09-16T03:53:31;13.87;;;6.73;;
72125;SDS011;59999;51.676;22.650;2022-09-16T03:55:57;15.48;;;6.72;;
72125;SDS011;59999;51.676;22.650;2022-09-16T03:58:23;13.13;;;6.78;;
72125;SDS011;59999;51.676;22.650;2022-09-16T04:00:48;14.77;;;6.33;;
72125;SDS011;59999;51.676;22.650;2022-09-16T04:03:18;16.80;;;6.88;;
72125;SDS011;59999;51.676;22.650;2022-09-16T04:05:44;12.05;;;5.97;;
72125;SDS011;59999;51.676;22.650;2022-09-16T04:08:10;14.10;;;6.65;;
72125;SDS011;59999;51.676;22.650;2022-09-16T04:10:36;12.17;;;6.27;;
72125;SDS011;59999;51.676;22.650;2022-09-16T04:13:02;14.43;;;6.18;;
72125;SDS011;59999;51.676;22.650;2022-09-16T04:15:28;12.18;;;5.95;;
72125;SDS011;59999;51.676;22.650;2022-09-16T04:17:54;18.50;;;6.70;;
72125;SDS011;59999;51.676;22.650;2022-09-16T04:20:20;11.63;;;5.87;;
72125;SDS011;59999;51.676;22.650;2022-09-16T04:22:48;12.30;;;6.55;;
72125;SDS011;59999;51.676;22.650;2022-09-16T04:25:14;13.95;;;6.40;;
72125;SDS011;59999;51.676;22.650;2022-09-16T04:27:40;16.65;;;5.93;;
72125;SDS011;59999;51.676;22.650;2022-09-16T04:30:06;12.63;;;5.97;;
72125;SDS011;59999;51.676;22.650;2022-09-16T04:32:32;15.23;;;6.38;;
72125;SDS011;59999;51.676;22.650;2022-09-16T04:34:58;14.93;;;6.65;;
72125;SDS011;59999;51.676;22.650;2022-09-16T04:37:24;14.53;;;6.67;;
72125;SDS011;59999;51.676;22.650;2022-09-16T04:39:50;12.85;;;6.10;;
72125;SDS011;59999;51.676;22.650;2022-09-16T04:42:17;19.65;;;6.57;;
72125;SDS011;59999;51.676;22.650;2022-09-16T04:44:43;15.60;;;6.93;;
72125;SDS011;59999;51.676;22.650;2022-09-16T04:47:09;14.90;;;6.97;;
72125;SDS011;59999;51.676;22.650;2022-09-16T04:49:35;13.82;;;6.75;;
72125;SDS011;59999;51.676;22.650;2022-09-16T04:52:01;12.55;;;5.90;;
72125;SDS011;59999;51.676;22.650;2022-09-16T04:54:27;15.83;;;6.10;;
72125;SDS011;59999;51.676;22.650;2022-09-16T04:56:53;14.90;;;6.15;;
72125;SDS011;59999;51.676;22.650;2022-09-16T04:59:19;13.18;;;6.15;;
72125;SDS011;59999;51.676;22.650;2022-09-16T05:01:46;13.38;;;5.85;;
72125;SDS011;59999;51.676;22.650;2022-09-16T05:04:12;12.93;;;6.30;;
72125;SDS011;59999;51.676;22.650;2022-09-16T05:06:38;14.02;;;6.50;;
72125;SDS011;59999;51.676;22.650;2022-09-16T05:09:05;13.07;;;5.60;;
72125;SDS011;59999;51.676;22.650;2022-09-16T05:11:33;14.90;;;6.07;;
72125;SDS011;59999;51.676;22.650;2022-09-16T05:14:02;11.30;;;5.40;;
72125;SDS011;59999;51.676;22.650;2022-09-16T05:16:30;13.63;;;5.93;;
72125;SDS011;59999;51.676;22.650;2022-09-16T05:18:57;12.05;;;5.40;;
72125;SDS011;59999;51.676;22.650;2022-09-16T05:21:25;11.27;;;4.75;;
72125;SDS011;59999;51.676;22.650;2022-09-16T05:23:52;15.97;;;6.70;;
72125;SDS011;59999;51.676;22.650;2022-09-16T05:26:21;12.48;;;6.30;;
72125;SDS011;59999;51.676;22.650;2022-09-16T05:28:49;11.07;;;4.88;;
72125;SDS011;59999;51.676;22.650;2022-09-16T05:31:17;13.90;;;5.35;;
72125;SDS011;59999;51.676;22.650;2022-09-16T05:36:20;12.57;;;4.87;;
72125;SDS011;59999;51.676;22.650;2022-09-16T05:38:46;13.73;;;5.63;;
72125;SDS011;59999;51.676;22.650;2022-09-16T05:41:13;11.30;;;5.32;;
72125;SDS011;59999;51.676;22.650;2022-09-16T05:43:39;18.13;;;7.47;;
72125;SDS011;59999;51.676;22.650;2022-09-16T05:46:05;13.43;;;6.83;;
72125;SDS011;59999;51.676;22.650;2022-09-16T05:48:32;11.05;;;5.63;;
72125;SDS011;59999;51.676;22.650;2022-09-16T05:51:03;12.40;;;6.65;;
72125;SDS011;59999;51.676;22.650;2022-09-16T05:53:31;11.93;;;5.47;;
72125;SDS011;59999;51.676;22.650;2022-09-16T05:56:00;12.20;;;6.15;;
72125;SDS011;59999;51.676;22.650;2022-09-16T05:58:28;17.00;;;9.10;;
72125;SDS011;59999;51.676;22.650;2022-09-16T06:03:26;14.32;;;6.35;;
72125;SDS011;59999;51.676;22.650;2022-09-16T06:08:46;14.55;;;6.03;;
72125;SDS011;59999;51.676;22.650;2022-09-16T06:11:13;13.47;;;6.60;;
72125;SDS011;59999;51.676;22.650;2022-09-16T06:13:40;14.52;;;7.20;;
72125;SDS011;59999;51.676;22.650;2022-09-16T06:16:06;12.40;;;7.13;;
72125;SDS011;59999;51.676;22.650;2022-09-16T06:18:34;12.63;;;6.65;;
72125;SDS011;59999;51.676;22.650;2022-09-16T06:21:02;14.77;;;6.88;;
72125;SDS011;59999;51.676;22.650;2022-09-16T06:23:30;12.67;;;6.90;;
72125;SDS011;59999;51.676;22.650;2022-09-16T06:26:00;12.85;;;7.50;;
72125;SDS011;59999;51.676;22.650;2022-09-16T06:28:31;14.77;;;8.27;;
72125;SDS011;59999;51.676;22.650;2022-09-16T06:31:01;14.52;;;7.90;;
72125;SDS011;59999;51.676;22.650;2022-09-16T06:33:35;14.68;;;8.10;;
72125;SDS011;59999;51.676;22.650;2022-09-16T06:36:12;20.17;;;9.30;;
72125;SDS011;59999;51.676;22.650;2022-09-16T06:38:41;24.15;;;11.00;;
72125;SDS011;59999;51.676;22.650;2022-09-16T06:41:08;16.42;;;8.73;;
72125;SDS011;59999;51.676;22.650;2022-09-16T06:43:35;14.63;;;8.13;;
72125;SDS011;59999;51.676;22.650;2022-09-16T06:46:11;17.02;;;8.60;;
72125;SDS011;59999;51.676;22.650;2022-09-16T06:48:41;15.13;;;8.27;;
72125;SDS011;59999;51.676;22.650;2022-09-16T06:51:12;17.00;;;7.93;;
72125;SDS011;59999;51.676;22.650;2022-09-16T06:53:40;14.65;;;8.52;;
72125;SDS011;59999;51.676;22.650;2022-09-16T06:56:08;13.88;;;8.02;;
72125;SDS011;59999;51.676;22.650;2022-09-16T06:58:39;15.23;;;8.40;;
72125;SDS011;59999;51.676;22.650;2022-09-16T07:01:10;15.43;;;7.90;;
72125;SDS011;59999;51.676;22.650;2022-09-16T07:03:39;16.13;;;7.65;;
72125;SDS011;59999;51.676;22.650;2022-09-16T07:06:07;15.52;;;7.90;;
72125;SDS011;59999;51.676;22.650;2022-09-16T07:08:34;12.00;;;7.47;;
72125;SDS011;59999;51.676;22.650;2022-09-16T07:11:05;11.50;;;6.70;;
72125;SDS011;59999;51.676;22.650;2022-09-16T07:13:45;12.70;;;6.83;;
72125;SDS011;59999;51.676;22.650;2022-09-16T07:16:13;14.98;;;7.07;;
72125;SDS011;59999;51.676;22.650;2022-09-16T07:18:40;12.25;;;6.22;;
72125;SDS011;59999;51.676;22.650;2022-09-16T07:21:09;9.75;;;5.38;;
72125;SDS011;59999;51.676;22.650;2022-09-16T07:23:38;11.95;;;5.60;;
72125;SDS011;59999;51.676;22.650;2022-09-16T07:26:06;12.60;;;6.60;;
72125;SDS011;59999;51.676;22.650;2022-09-16T07:28:34;12.13;;;5.90;;
72125;SDS011;59999;51.676;22.650;2022-09-16T07:31:01;12.32;;;6.00;;
72125;SDS011;59999;51.676;22.650;2022-09-16T07:33:28;13.65;;;6.65;;
72125;SDS011;59999;51.676;22.650;2022-09-16T07:35:57;10.45;;;5.82;;
72125;SDS011;59999;51.676;22.650;2022-09-16T07:38:27;9.37;;;5.70;;
72125;SDS011;59999;51.676;22.650;2022-09-16T07:40:54;10.45;;;6.25;;
72125;SDS011;59999;51.676;22.650;2022-09-16T07:43:20;12.60;;;6.80;;
72125;SDS011;59999;51.676;22.650;2022-09-16T07:45:53;11.65;;;7.40;;
72125;SDS011;59999;51.676;22.650;2022-09-16T07:48:20;11.77;;;7.13;;
72125;SDS011;59999;51.676;22.650;2022-09-16T07:50:59;13.53;;;7.00;;
72125;SDS011;59999;51.676;22.650;2022-09-16T07:53:28;11.10;;;6.53;;
72125;SDS011;59999;51.676;22.650;2022-09-16T07:55:55;14.27;;;7.75;;
72125;SDS011;59999;51.676;22.650;2022-09-16T07:58:25;28.10;;;10.00;;
72125;SDS011;59999;51.676;22.650;2022-09-16T08:00:51;18.08;;;7.88;;
72125;SDS011;59999;51.676;22.650;2022-09-16T08:03:17;23.03;;;9.17;;
72125;SDS011;59999;51.676;22.650;2022-09-16T08:05:43;29.42;;;9.95;;
72125;SDS011;59999;51.676;22.650;2022-09-16T08:08:09;11.80;;;5.93;;
72125;SDS011;59999;51.676;22.650;2022-09-16T08:10:35;9.37;;;4.73;;
72125;SDS011;59999;51.676;22.650;2022-09-16T08:13:02;11.68;;;4.95;;
72125;SDS011;59999;51.676;22.650;2022-09-16T08:15:29;10.10;;;4.72;;
72125;SDS011;59999;51.676;22.650;2022-09-16T08:17:55;9.80;;;4.82;;
72125;SDS011;59999;51.676;22.650;2022-09-16T08:20:21;21.47;;;9.23;;
72125;SDS011;59999;51.676;22.650;2022-09-16T08:22:48;16.63;;;8.10;;
72125;SDS011;59999;51.676;22.650;2022-09-16T08:25:14;12.20;;;5.22;;
72125;SDS011;59999;51.676;22.650;2022-09-16T08:27:40;11.17;;;4.60;;
72125;SDS011;59999;51.676;22.650;2022-09-16T08:30:06;8.45;;;4.20;;
72125;SDS011;59999;51.676;22.650;2022-09-16T08:32:34;10.07;;;3.78;;
72125;SDS011;59999;51.676;22.650;2022-09-16T08:35:00;18.60;;;7.82;;
72125;SDS011;59999;51.676;22.650;2022-09-16T08:37:26;19.27;;;9.50;;
72125;SDS011;59999;51.676;22.650;2022-09-16T08:39:52;11.40;;;4.72;;
72125;SDS011;59999;51.676;22.650;2022-09-16T08:50:36;10.23;;;4.47;;
72125;SDS011;59999;51.676;22.650;2022-09-16T08:53:09;21.08;;;9.63;;
72125;SDS011;59999;51.676;22.650;2022-09-16T08:55:56;21.98;;;7.72;;
72125;SDS011;59999;51.676;22.650;2022-09-16T08:58:26;14.10;;;5.13;;
72125;SDS011;59999;51.676;22.650;2022-09-16T09:00:59;11.53;;;4.80;;
72125;SDS011;59999;51.676;22.650;2022-09-16T09:05:55;16.50;;;4.78;;
72125;SDS011;59999;51.676;22.650;2022-09-16T09:14:25;23.58;;;8.25;;
72125;SDS011;59999;51.676;22.650;2022-09-16T09:30:24;10.65;;;2.78;;
72125;SDS011;59999;51.676;22.650;2022-09-16T09:41:38;8.50;;;3.08;;
72125;SDS011;59999;51.676;22.650;2022-09-16T09:47:08;6.30;;;2.17;;
72125;SDS011;59999;51.676;22.650;2022-09-16T09:49:43;7.83;;;2.23;;
72125;SDS011;59999;51.676;22.650;2022-09-16T09:54:45;8.98;;;3.38;;
72125;SDS011;59999;51.676;22.650;2022-09-16T10:02:36;19.33;;;5.90;;
72125;SDS011;59999;51.676;22.650;2022-09-16T10:05:41;9.75;;;2.53;;
72125;SDS011;59999;51.676;22.650;2022-09-16T10:08:03;6.85;;;2.45;;
72125;SDS011;59999;51.676;22.650;2022-09-16T10:10:53;6.15;;;2.28;;
72125;SDS011;59999;51.676;22.650;2022-09-16T10:13:21;11.68;;;2.63;;
72125;SDS011;59999;51.676;22.650;2022-09-16T10:15:49;4.63;;;1.90;;
72125;SDS011;59999;51.676;22.650;2022-09-16T10:18:25;5.80;;;1.70;;
72125;SDS011;59999;51.676;22.650;2022-09-16T10:20:56;6.65;;;2.30;;
72125;SDS011;59999;51.676;22.650;2022-09-16T10:23:22;8.07;;;2.92;;
72125;SDS011;59999;51.676;22.650;2022-09-16T10:26:01;6.32;;;2.20;;
72125;SDS011;59999;51.676;22.650;2022-09-16T10:31:47;4.68;;;2.00;;
72125;SDS011;59999;51.676;22.650;2022-09-16T10:34:22;7.82;;;1.98;;
72125;SDS011;59999;51.676;22.650;2022-09-16T10:39:53;6.97;;;2.00;;
72125;SDS011;59999;51.676;22.650;2022-09-16T10:44:49;9.95;;;2.80;;
72125;SDS011;59999;51.676;22.650;2022-09-16T10:47:19;5.28;;;2.15;;
72125;SDS011;59999;51.676;22.650;2022-09-16T10:49:49;5.43;;;2.03;;
72125;SDS011;59999;51.676;22.650;2022-09-16T10:54:48;5.97;;;1.50;;
72125;SDS011;59999;51.676;22.650;2022-09-16T10:57:21;10.30;;;3.33;;
72125;SDS011;59999;51.676;22.650;2022-09-16T10:59:58;7.25;;;1.65;;
72125;SDS011;59999;51.676;22.650;2022-09-16T11:02:33;5.93;;;1.77;;
72125;SDS011;59999;51.676;22.650;2022-09-16T11:10:43;8.00;;;2.47;;
72125;SDS011;59999;51.676;22.650;2022-09-16T11:18:41;4.13;;;1.60;;
72125;SDS011;59999;51.676;22.650;2022-09-16T11:24:14;5.15;;;1.60;;
72125;SDS011;59999;51.676;22.650;2022-09-16T11:29:49;4.63;;;1.40;;
72125;SDS011;59999;51.676;22.650;2022-09-16T11:32:39;5.30;;;1.95;;
72125;SDS011;59999;51.676;22.650;2022-09-16T11:41:20;4.72;;;1.30;;
72125;SDS011;59999;51.676;22.650;2022-09-16T11:50:15;3.77;;;1.13;;
72125;SDS011;59999;51.676;22.650;2022-09-16T11:56:05;7.53;;;2.67;;
72125;SDS011;59999;51.676;22.650;2022-09-16T11:58:46;8.88;;;2.80;;
72125;SDS011;59999;51.676;22.650;2022-09-16T12:01:34;5.43;;;1.67;;
72125;SDS011;59999;51.676;22.650;2022-09-16T12:04:25;5.80;;;1.60;;
72125;SDS011;59999;51.676;22.650;2022-09-16T12:06:59;7.30;;;1.45;;
72125;SDS011;59999;51.676;22.650;2022-09-16T12:12:24;4.97;;;1.45;;
72125;SDS011;59999;51.676;22.650;2022-09-16T12:17:58;8.30;;;1.80;;
72125;SDS011;59999;51.676;22.650;2022-09-16T12:20:36;7.68;;;2.72;;
72125;SDS011;59999;51.676;22.650;2022-09-16T12:23:17;4.78;;;1.33;;
72125;SDS011;59999;51.676;22.650;2022-09-16T12:28:35;6.10;;;1.40;;
72125;SDS011;59999;51.676;22.650;2022-09-16T12:36:41;6.18;;;1.65;;
72125;SDS011;59999;51.676;22.650;2022-09-16T12:39:11;4.25;;;0.90;;
72125;SDS011;59999;51.676;22.650;2022-09-16T12:44:41;4.20;;;1.47;;
72125;SDS011;59999;51.676;22.650;2022-09-16T12:47:40;6.85;;;1.23;;
72125;SDS011;59999;51.676;22.650;2022-09-16T13:01:45;6.03;;;1.63;;
72125;SDS011;59999;51.676;22.650;2022-09-16T13:06:49;4.55;;;1.25;;
72125;SDS011;59999;51.676;22.650;2022-09-16T13:11:52;3.00;;;0.90;;
72125;SDS011;59999;51.676;22.650;2022-09-16T13:14:26;5.80;;;1.55;;
72125;SDS011;59999;51.676;22.650;2022-09-16T13:16:58;6.25;;;1.70;;
72125;SDS011;59999;51.676;22.650;2022-09-16T13:24:44;7.77;;;2.00;;
72125;SDS011;59999;51.676;22.650;2022-09-16T13:30:03;4.82;;;1.83;;
72125;SDS011;59999;51.676;22.650;2022-09-16T13:37:56;6.00;;;2.37;;
72125;SDS011;59999;51.676;22.650;2022-09-16T13:40:24;5.50;;;2.25;;
72125;SDS011;59999;51.676;22.650;2022-09-16T13:43:53;4.90;;;1.60;;
72125;SDS011;59999;51.676;22.650;2022-09-16T13:46:11;5.57;;;1.60;;
72125;SDS011;59999;51.676;22.650;2022-09-16T13:48:43;4.30;;;1.20;;
72125;SDS011;59999;51.676;22.650;2022-09-16T13:51:15;5.05;;;1.80;;
72125;SDS011;59999;51.676;22.650;2022-09-16T13:53:47;5.60;;;1.60;;
72125;SDS011;59999;51.676;22.650;2022-09-16T14:01:38;6.15;;;1.60;;
72125;SDS011;59999;51.676;22.650;2022-09-16T14:15:08;3.38;;;1.00;;
72125;SDS011;59999;51.676;22.650;2022-09-16T14:17:43;3.22;;;0.90;;
72125;SDS011;59999;51.676;22.650;2022-09-16T14:20:16;4.15;;;1.13;;
72125;SDS011;59999;51.676;22.650;2022-09-16T14:22:45;4.97;;;1.20;;
72125;SDS011;59999;51.676;22.650;2022-09-16T14:25:27;3.40;;;0.87;;
72125;SDS011;59999;51.676;22.650;2022-09-16T14:30:44;3.88;;;0.82;;
72125;SDS011;59999;51.676;22.650;2022-09-16T14:33:14;4.70;;;1.23;;
72125;SDS011;59999;51.676;22.650;2022-09-16T14:35:45;4.77;;;1.20;;
72125;SDS011;59999;51.676;22.650;2022-09-16T14:38:12;3.78;;;1.27;;
72125;SDS011;59999;51.676;22.650;2022-09-16T14:40:42;5.90;;;1.42;;
72125;SDS011;59999;51.676;22.650;2022-09-16T14:43:13;5.00;;;1.50;;
72125;SDS011;59999;51.676;22.650;2022-09-16T14:45:46;4.82;;;1.73;;
72125;SDS011;59999;51.676;22.650;2022-09-16T14:48:15;6.53;;;1.90;;
72125;SDS011;59999;51.676;22.650;2022-09-16T14:50:46;6.88;;;1.55;;
72125;SDS011;59999;51.676;22.650;2022-09-16T14:53:51;5.22;;;1.75;;
72125;SDS011;59999;51.676;22.650;2022-09-16T14:56:14;4.88;;;1.85;;
72125;SDS011;59999;51.676;22.650;2022-09-16T14:58:44;4.93;;;1.60;;
72125;SDS011;59999;51.676;22.650;2022-09-16T15:01:13;6.53;;;1.30;;
72125;SDS011;59999;51.676;22.650;2022-09-16T15:03:47;4.65;;;1.70;;
72125;SDS011;59999;51.676;22.650;2022-09-16T15:06:25;7.45;;;1.60;;
72125;SDS011;59999;51.676;22.650;2022-09-16T15:08:56;5.07;;;1.83;;
72125;SDS011;59999;51.676;22.650;2022-09-16T15:11:46;4.10;;;1.27;;
72125;SDS011;59999;51.676;22.650;2022-09-16T15:14:17;7.20;;;2.53;;
72125;SDS011;59999;51.676;22.650;2022-09-16T15:16:44;7.22;;;2.38;;
72125;SDS011;59999;51.676;22.650;2022-09-16T15:19:18;183.20;;;68.13;;
72125;SDS011;59999;51.676;22.650;2022-09-16T15:22:15;278.33;;;106.15;;
72125;SDS011;59999;51.676;22.650;2022-09-16T15:24:42;126.75;;;52.05;;
72125;SDS011;59999;51.676;22.650;2022-09-16T15:27:09;48.70;;;21.13;;
72125;SDS011;59999;51.676;22.650;2022-09-16T15:29:45;30.08;;;13.95;;
72125;SDS011;59999;51.676;22.650;2022-09-16T15:32:14;32.58;;;13.15;;
72125;SDS011;59999;51.676;22.650;2022-09-16T15:34:42;19.38;;;8.25;;
72125;SDS011;59999;51.676;22.650;2022-09-16T15:40:08;14.97;;;5.80;;
72125;SDS011;59999;51.676;22.650;2022-09-16T15:42:36;14.60;;;6.13;;
72125;SDS011;59999;51.676;22.650;2022-09-16T15:45:02;34.63;;;14.38;;
72125;SDS011;59999;51.676;22.650;2022-09-16T15:47:37;11.80;;;5.20;;
72125;SDS011;59999;51.676;22.650;2022-09-16T15:50:25;9.98;;;5.25;;
72125;SDS011;59999;51.676;22.650;2022-09-16T15:52:56;14.20;;;5.10;;
72125;SDS011;59999;51.676;22.650;2022-09-16T15:56:16;9.82;;;5.85;;
72125;SDS011;59999;51.676;22.650;2022-09-16T15:58:18;12.70;;;6.03;;
72125;SDS011;59999;51.676;22.650;2022-09-16T16:00:59;11.00;;;5.10;;
72125;SDS011;59999;51.676;22.650;2022-09-16T16:03:29;16.30;;;9.18;;
72125;SDS011;59999;51.676;22.650;2022-09-16T16:05:59;15.03;;;7.47;;
72125;SDS011;59999;51.676;22.650;2022-09-16T16:08:43;14.40;;;7.50;;
72125;SDS011;59999;51.676;22.650;2022-09-16T16:11:15;10.05;;;6.07;;
72125;SDS011;59999;51.676;22.650;2022-09-16T16:13:43;15.05;;;6.60;;
72125;SDS011;59999;51.676;22.650;2022-09-16T16:16:10;13.30;;;8.23;;
72125;SDS011;59999;51.676;22.650;2022-09-16T16:18:37;9.77;;;4.83;;
72125;SDS011;59999;51.676;22.650;2022-09-16T16:21:05;12.50;;;6.40;;
72125;SDS011;59999;51.676;22.650;2022-09-16T16:23:35;11.93;;;5.10;;
72125;SDS011;59999;51.676;22.650;2022-09-16T16:26:05;15.68;;;7.13;;
72125;SDS011;59999;51.676;22.650;2022-09-16T16:28:33;16.67;;;7.97;;
72125;SDS011;59999;51.676;22.650;2022-09-16T16:31:13;15.87;;;9.30;;
72125;SDS011;59999;51.676;22.650;2022-09-16T16:33:45;13.95;;;6.38;;
72125;SDS011;59999;51.676;22.650;2022-09-16T16:36:12;12.43;;;6.32;;
72125;SDS011;59999;51.676;22.650;2022-09-16T16:38:40;16.30;;;8.27;;
72125;SDS011;59999;51.676;22.650;2022-09-16T16:41:07;22.25;;;12.57;;
72125;SDS011;59999;51.676;22.650;2022-09-16T16:43:33;59.27;;;36.30;;
72125;SDS011;59999;51.676;22.650;2022-09-16T16:45:59;53.08;;;32.13;;
72125;SDS011;59999;51.676;22.650;2022-09-16T16:48:26;89.43;;;58.42;;
72125;SDS011;59999;51.676;22.650;2022-09-16T16:51:03;46.97;;;32.20;;
72125;SDS011;59999;51.676;22.650;2022-09-16T16:53:31;59.92;;;38.25;;
72125;SDS011;59999;51.676;22.650;2022-09-16T16:56:03;48.50;;;28.63;;
72125;SDS011;59999;51.676;22.650;2022-09-16T16:58:31;18.10;;;9.07;;
72125;SDS011;59999;51.676;22.650;2022-09-16T17:01:07;13.00;;;5.35;;
72125;SDS011;59999;51.676;22.650;2022-09-16T17:03:34;13.48;;;5.03;;
72125;SDS011;59999;51.676;22.650;2022-09-16T17:06:00;18.35;;;5.30;;
72125;SDS011;59999;51.676;22.650;2022-09-16T17:08:26;19.07;;;5.50;;
72125;SDS011;59999;51.676;22.650;2022-09-16T17:11:08;67.75;;;12.75;;
72125;SDS011;59999;51.676;22.650;2022-09-16T17:13:36;42.00;;;7.38;;
72125;SDS011;59999;51.676;22.650;2022-09-16T17:16:03;32.50;;;6.57;;
72125;SDS011;59999;51.676;22.650;2022-09-16T17:18:29;26.70;;;6.50;;
72125;SDS011;59999;51.676;22.650;2022-09-16T17:21:06;20.15;;;4.93;;
72125;SDS011;59999;51.676;22.650;2022-09-16T17:23:37;16.10;;;4.75;;
72125;SDS011;59999;51.676;22.650;2022-09-16T17:26:04;16.27;;;4.90;;
72125;SDS011;59999;51.676;22.650;2022-09-16T17:28:33;25.73;;;8.33;;
72125;SDS011;59999;51.676;22.650;2022-09-16T17:31:00;25.45;;;9.60;;
72125;SDS011;59999;51.676;22.650;2022-09-16T17:33:26;20.25;;;8.25;;
72125;SDS011;59999;51.676;22.650;2022-09-16T17:35:59;14.20;;;5.03;;
72125;SDS011;59999;51.676;22.650;2022-09-16T17:38:26;11.80;;;5.07;;
72125;SDS011;59999;51.676;22.650;2022-09-16T17:40:58;10.05;;;4.35;;
72125;SDS011;59999;51.676;22.650;2022-09-16T17:43:28;7.32;;;3.10;;
72125;SDS011;59999;51.676;22.650;2022-09-16T17:45:56;8.15;;;2.95;;
72125;SDS011;59999;51.676;22.650;2022-09-16T17:48:26;12.88;;;6.10;;
72125;SDS011;59999;51.676;22.650;2022-09-16T17:50:52;11.50;;;5.50;;
72125;SDS011;59999;51.676;22.650;2022-09-16T17:53:19;10.52;;;5.25;;
72125;SDS011;59999;51.676;22.650;2022-09-16T17:55:45;11.52;;;5.88;;
72125;SDS011;59999;51.676;22.650;2022-09-16T17:58:12;10.40;;;4.50;;
72125;SDS011;59999;51.676;22.650;2022-09-16T18:00:39;13.23;;;6.70;;
72125;SDS011;59999;51.676;22.650;2022-09-16T18:03:05;13.00;;;6.33;;
72125;SDS011;59999;51.676;22.650;2022-09-16T18:05:32;10.98;;;5.40;;
72125;SDS011;59999;51.676;22.650;2022-09-16T18:07:59;9.93;;;4.35;;
72125;SDS011;59999;51.676;22.650;2022-09-16T18:10:24;8.25;;;4.05;;
72125;SDS011;59999;51.676;22.650;2022-09-16T18:12:50;9.33;;;4.60;;